Capitol Logistics 264




KCLT
Charlotte/Douglas International Airport
Charlotte, North Carolina
KMIA
Miami International Airport
Miami, Florida

Route Details

Aircraft Information
Primary: Boeing 767-300BDSF
Backup: Not Available
Route Data
Distance: 567nm
Duration: 1h 56m
Recm'd Route: ICONS4 NOOKS WURFL Q83 JEVED Q97 KENLL OMN HILEY7
Origin Wx: KCLT 180152Z 03006KT 10SM SCT080 16/05 A2986 RMK AO2 SLP106 T01610050
Dest. Wx: KMIA 180153Z 28006KT 10SM CLR 26/18 A2991 RMK AO2 SLP128 T02610178 $
Notes: